Time;durP1;ratioP1;P1;durP2;ratioP2;P2;SDS_P1;SDS_P2;PMS_P1;PMS_P2;Temp;Humidity;BMP_temperature;BMP_pressure;BME280_temperature;BME280_humidity;BME280_pressure;Samples;Min_cycle;Max_cycle;Signal;HPM_P1;HPM_P2
2023/06/04 00:01:11;;;;;;;2.10;1.90;;;22.50;31.20;23.20;101164.00;;;;5008357;28;20562;-52
2023/06/04 00:03:37;;;;;;;3.20;1.80;;;22.40;31.30;23.20;101176.00;;;;5015984;28;20307;-52
2023/06/04 00:06:02;;;;;;;1.90;1.80;;;22.40;31.40;23.20;101170.00;;;;5009333;28;20619;-50
2023/06/04 00:08:28;;;;;;;2.00;1.80;;;22.40;31.20;23.20;101169.00;;;;5007856;28;20179;-51
2023/06/04 00:10:54;;;;;;;2.70;1.90;;;22.30;31.30;23.00;101166.00;;;;5007818;28;20235;-52
2023/06/04 00:13:20;;;;;;;2.13;1.90;;;22.30;31.50;23.10;101164.00;;;;5008008;28;20168;-53
2023/06/04 00:15:45;;;;;;;1.93;1.60;;;22.30;31.30;23.10;101181.00;;;;5008943;28;20702;-52
2023/06/04 00:18:13;;;;;;;1.90;1.80;;;22.30;31.20;23.10;101166.00;;;;5013886;28;20199;-52
2023/06/04 00:20:39;;;;;;;2.57;2.07;;;22.30;31.30;23.00;101170.00;;;;5008460;28;20685;-52
2023/06/04 00:23:05;;;;;;;1.70;1.60;;;22.20;31.00;23.00;101166.00;;;;5007820;28;20234;-52
2023/06/04 00:25:31;;;;;;;2.10;1.90;;;22.20;31.20;23.00;101169.00;;;;5007498;28;20191;-52
2023/06/04 00:27:57;;;;;;;1.70;1.60;;;22.20;31.30;23.00;101163.00;;;;5007616;28;20226;-52
2023/06/04 00:30:22;;;;;;;1.70;1.60;;;22.20;31.40;22.90;101169.00;;;;5007350;28;20207;-52
2023/06/04 00:32:48;;;;;;;2.07;1.80;;;22.20;31.40;22.90;101103.00;;;;5007656;28;20748;-52
2023/06/04 00:35:14;;;;;;;1.83;1.73;;;22.10;31.40;22.90;101168.00;;;;5008990;28;20176;-53
2023/06/04 00:37:39;;;;;;;1.70;1.60;;;22.10;31.50;22.90;101170.00;;;;5011134;28;20200;-52
2023/06/04 00:40:06;;;;;;;2.03;1.60;;;22.10;31.50;22.90;101172.00;;;;5011077;28;20192;-52
2023/06/04 00:42:32;;;;;;;2.17;1.80;;;22.10;31.60;22.80;101170.00;;;;5011161;28;20172;-52
2023/06/04 00:44:58;;;;;;;2.00;1.80;;;22.10;31.50;22.80;101173.00;;;;5011251;28;20179;-52
2023/06/04 00:47:24;;;;;;;2.20;1.90;;;22.10;31.50;22.80;101167.00;;;;5010943;28;20178;-52
2023/06/04 00:49:50;;;;;;;1.90;1.80;;;22.10;31.50;22.70;101165.00;;;;5009353;28;20804;-52
2023/06/04 00:52:16;;;;;;;2.40;2.20;;;22.00;31.60;22.70;101171.00;;;;5009411;28;20195;-52
2023/06/04 00:54:42;;;;;;;1.80;1.70;;;22.00;31.60;22.70;101170.00;;;;5010537;28;20210;-52
2023/06/04 00:57:08;;;;;;;2.00;1.80;;;22.00;31.70;22.70;101164.00;;;;5010756;28;20183;-52
2023/06/04 00:59:36;;;;;;;2.10;1.80;;;22.00;31.70;22.70;101088.00;;;;5010766;28;20813;-52
2023/06/04 01:02:19;;;;;;;1.90;1.80;;;22.00;31.70;22.60;101170.00;;;;5009429;28;20537;-53
2023/06/04 01:05:05;;;;;;;2.10;1.90;;;21.90;31.80;22.60;101165.00;;;;4978249;28;20164;-50
2023/06/04 01:07:30;;;;;;;2.87;1.87;;;21.90;31.90;22.60;101165.00;;;;4994192;28;20260;-51
2023/06/04 01:09:56;;;;;;;1.90;1.80;;;21.90;31.90;22.60;101166.00;;;;5010449;28;20227;-51
2023/06/04 01:12:22;;;;;;;2.70;1.97;;;21.90;32.50;22.60;101165.00;;;;5010292;28;20184;-51
2023/06/04 01:14:48;;;;;;;1.93;1.83;;;21.90;31.90;22.50;101164.00;;;;5010027;28;20172;-51
2023/06/04 01:17:37;;;;;;;2.50;1.93;;;21.90;32.00;22.50;101167.00;;;;5010449;28;20175;-52
2023/06/04 01:20:32;;;;;;;1.97;1.80;;;21.90;32.00;22.50;101166.00;;;;5009366;28;20345;-52
2023/06/04 01:23:19;;;;;;;1.90;1.80;;;21.90;32.20;22.50;101181.00;;;;5009564;28;20516;-51
2023/06/04 01:25:49;;;;;;;1.87;1.77;;;21.90;32.30;22.50;101179.00;;;;5008861;28;20191;-53
2023/06/04 01:28:15;;;;;;;1.90;1.70;;;21.80;32.20;22.50;101175.00;;;;4992998;28;20179;-53
2023/06/04 01:30:45;;;;;;;1.70;1.60;;;21.80;32.20;22.40;101183.00;;;;5008450;28;20204;-53
2023/06/04 01:33:12;;;;;;;1.80;1.70;;;21.80;32.30;22.40;101166.00;;;;5010089;28;20229;-53
2023/06/04 01:35:38;;;;;;;2.40;1.90;;;21.80;32.30;22.40;101173.00;;;;5009938;28;20174;-53
2023/06/04 01:38:04;;;;;;;2.20;2.00;;;21.80;32.40;22.40;101178.00;;;;5009189;28;20657;-51
2023/06/04 01:40:30;;;;;;;2.00;1.90;;;21.80;32.50;22.40;101184.00;;;;5009952;28;20206;-51
2023/06/04 01:42:56;;;;;;;2.70;1.90;;;21.80;32.60;22.40;101185.00;;;;5010136;28;20205;-52
2023/06/04 01:45:22;;;;;;;2.03;1.83;;;21.80;32.60;22.40;101177.00;;;;5009546;28;20658;-52
2023/06/04 01:47:49;;;;;;;2.57;1.73;;;21.80;32.70;22.30;101182.00;;;;5009734;28;20590;-51
2023/06/04 01:50:15;;;;;;;2.33;1.90;;;21.80;32.70;22.30;101173.00;;;;5009395;28;20287;-52
2023/06/04 01:52:41;;;;;;;1.90;1.80;;;21.80;32.90;22.30;101180.00;;;;5008884;28;20344;-52
2023/06/04 01:55:08;;;;;;;2.00;1.90;;;21.80;32.90;22.30;101181.00;;;;5009629;28;20175;-52
2023/06/04 01:57:38;;;;;;;2.33;2.00;;;21.80;33.10;22.30;101183.00;;;;5009454;28;20175;-51
2023/06/04 02:00:08;;;;;;;1.90;1.80;;;21.80;33.00;22.30;101176.00;;;;5008499;28;20230;-51
2023/06/04 02:02:35;;;;;;;1.93;1.83;;;21.80;32.90;22.20;101177.00;;;;5018943;28;20258;-52
2023/06/04 02:05:01;;;;;;;1.83;1.63;;;21.70;32.80;22.20;101115.00;;;;5011140;28;20230;-52
2023/06/04 02:07:27;;;;;;;1.73;1.63;;;21.70;32.90;22.20;101185.00;;;;5009339;28;20180;-50
2023/06/04 02:09:52;;;;;;;2.53;1.80;;;21.60;32.70;22.20;101175.00;;;;5008155;28;20191;-52
2023/06/04 02:12:18;;;;;;;2.17;1.70;;;21.60;32.80;22.20;101170.00;;;;5009307;28;20776;-52
2023/06/04 02:14:46;;;;;;;1.80;1.70;;;21.70;32.80;22.20;101194.00;;;;5011058;28;20187;-52
2023/06/04 02:17:12;;;;;;;1.80;1.70;;;21.70;32.80;22.10;101180.00;;;;5018127;28;20544;-53
2023/06/04 02:19:49;;;;;;;2.20;1.90;;;21.70;32.70;22.10;101178.00;;;;5011916;28;20202;-52
2023/06/04 02:22:18;;;;;;;2.17;1.90;;;21.60;32.70;22.10;101179.00;;;;5009295;28;20218;-51
2023/06/04 02:24:44;;;;;;;2.00;1.70;;;21.60;32.80;22.10;101174.00;;;;5009452;28;20254;-50
2023/06/04 02:27:11;;;;;;;2.00;1.80;;;21.60;32.70;22.00;101178.00;;;;5009240;28;20263;-51
2023/06/04 02:29:38;;;;;;;1.97;1.70;;;21.60;32.50;22.00;101181.00;;;;5009084;28;20747;-52
2023/06/04 02:32:05;;;;;;;2.20;1.90;;;21.50;32.40;22.00;101183.00;;;;5009024;28;20258;-52
2023/06/04 02:34:30;;;;;;;2.10;1.90;;;21.50;32.40;22.00;101181.00;;;;5008933;28;20172;-52
2023/06/04 02:36:57;;;;;;;2.03;1.83;;;21.40;32.30;21.90;101186.00;;;;5008848;28;20176;-51
2023/06/04 02:39:22;;;;;;;1.90;1.80;;;21.40;32.30;21.90;101188.00;;;;5008873;28;20234;-52
2023/06/04 02:41:48;;;;;;;2.13;1.83;;;21.40;32.50;21.90;101186.00;;;;5008843;28;20202;-51
2023/06/04 02:44:14;;;;;;;2.37;1.67;;;21.40;32.50;21.90;101182.00;;;;5008593;28;20180;-53
2023/06/04 02:46:39;;;;;;;2.10;1.90;;;21.40;32.50;21.90;101190.00;;;;5008709;28;20753;-51
2023/06/04 02:49:05;;;;;;;1.90;1.80;;;21.30;32.50;21.80;101189.00;;;;5008626;28;20202;-51
2023/06/04 02:51:32;;;;;;;2.20;2.00;;;21.40;32.60;21.80;101180.00;;;;5008149;28;20230;-51
2023/06/04 02:53:58;;;;;;;2.00;1.80;;;21.40;32.70;21.80;101183.00;;;;5008403;28;20595;-50
2023/06/04 02:56:23;;;;;;;2.10;1.90;;;21.40;32.70;21.80;101186.00;;;;5007092;28;20179;-51
2023/06/04 02:58:53;;;;;;;2.37;1.93;;;21.40;32.70;21.80;101186.00;;;;5008259;28;20179;-52
2023/06/04 03:01:23;;;;;;;2.20;2.00;;;21.40;32.80;21.80;101188.00;;;;5008439;28;20207;-51
2023/06/04 03:03:49;;;;;;;2.07;1.80;;;21.30;33.00;21.80;101189.00;;;;5008435;28;20657;-51
2023/06/04 03:06:15;;;;;;;2.70;1.87;;;21.30;32.80;21.70;101191.00;;;;5008171;28;20180;-52
2023/06/04 03:08:41;;;;;;;2.43;2.13;;;21.30;33.00;21.70;101188.00;;;;5008443;28;20175;-52
2023/06/04 03:11:07;;;;;;;2.30;2.00;;;21.30;33.20;21.70;101184.00;;;;5008357;28;20708;-51
2023/06/04 03:13:33;;;;;;;2.20;2.00;;;21.20;33.10;21.70;101187.00;;;;5007100;28;20168;-51
2023/06/04 03:16:00;;;;;;;2.23;2.03;;;21.20;33.10;21.70;101198.00;;;;5007970;28;20650;-51
2023/06/04 03:18:27;;;;;;;3.13;1.93;;;21.20;33.10;21.60;101193.00;;;;5007972;28;20708;-50
2023/06/04 03:20:53;;;;;;;2.17;2.00;;;21.20;33.10;21.60;101190.00;;;;5008460;28;20194;-50
2023/06/04 03:23:22;;;;;;;5.13;2.10;;;21.10;33.00;21.60;101191.00;;;;5008268;28;20179;-53
2023/06/04 03:25:48;;;;;;;2.10;1.90;;;21.10;33.00;21.50;101189.00;;;;5004214;28;20188;-51
2023/06/04 03:28:14;;;;;;;3.23;1.93;;;21.10;33.00;21.50;101185.00;;;;5006212;28;20179;-53
2023/06/04 03:30:40;;;;;;;2.83;2.10;;;21.10;33.00;21.50;101188.00;;;;5007723;28;20203;-51
2023/06/04 03:33:07;;;;;;;3.67;1.97;;;21.10;33.00;21.30;101195.00;;;;5007686;28;20274;-51
2023/06/04 03:35:33;;;;;;;2.10;1.90;;;21.10;33.00;21.50;101194.00;;;;5007768;28;20178;-53
2023/06/04 03:37:58;;;;;;;3.07;2.10;;;21.00;32.90;21.40;101187.00;;;;5006625;28;20190;-50
2023/06/04 03:40:24;;;;;;;2.60;2.00;;;20.90;33.00;21.40;101197.00;;;;5006527;28;20203;-51
2023/06/04 03:42:50;;;;;;;2.07;1.80;;;20.90;32.90;21.40;101195.00;;;;5002684;28;20352;-50
2023/06/04 03:45:16;;;;;;;4.07;2.03;;;20.90;32.80;21.40;101189.00;;;;5004620;28;20171;-51
2023/06/04 03:47:41;;;;;;;3.10;1.80;;;20.90;33.10;21.30;101180.00;;;;5007603;28;20175;-52
2023/06/04 03:50:07;;;;;;;2.27;2.07;;;20.90;33.20;21.30;101190.00;;;;5007088;28;20207;-51
2023/06/04 03:52:33;;;;;;;2.40;1.90;;;20.80;33.00;21.30;101183.00;;;;4998726;28;20171;-51
2023/06/04 03:55:00;;;;;;;2.07;1.97;;;20.80;33.00;21.20;101190.00;;;;5007199;28;20168;-52
2023/06/04 03:57:25;;;;;;;2.70;2.10;;;20.80;33.10;21.20;101180.00;;;;5007933;28;20658;-52
2023/06/04 03:59:52;;;;;;;2.37;1.90;;;20.70;33.10;21.20;101146.00;;;;5012243;28;20278;-53
2023/06/04 04:02:18;;;;;;;2.30;2.10;;;20.70;33.00;21.20;101190.00;;;;5010619;28;20217;-52
2023/06/04 04:04:44;;;;;;;1.90;1.80;;;20.70;33.20;21.10;101189.00;;;;5007844;28;20179;-52
2023/06/04 04:07:10;;;;;;;2.20;2.00;;;20.70;33.30;21.10;101191.00;;;;5007853;28;20180;-53
2023/06/04 04:09:36;;;;;;;2.70;2.07;;;20.70;33.30;21.10;101189.00;;;;5004573;28;20202;-52
2023/06/04 04:12:03;;;;;;;3.63;1.90;;;20.70;33.40;21.10;101185.00;;;;5011564;28;20200;-51
2023/06/04 04:14:29;;;;;;;2.70;2.00;;;20.60;33.60;21.10;101190.00;;;;5017158;28;20183;-56
2023/06/04 04:16:55;;;;;;;2.30;2.10;;;20.60;33.80;21.10;101191.00;;;;5014560;28;20285;-56
2023/06/04 04:19:20;;;;;;;2.37;2.17;;;20.60;33.90;21.10;101191.00;;;;5011661;28;20180;-55
2023/06/04 04:21:48;;;;;;;2.93;2.03;;;20.70;34.00;21.10;101183.00;;;;5011601;28;20673;-55
2023/06/04 04:24:35;;;;;;;2.30;1.93;;;20.70;34.10;21.10;101184.00;;;;5009716;28;20634;-56
2023/06/04 04:27:03;;;;;;;1.93;1.83;;;20.70;34.20;21.10;101201.00;;;;5011374;28;20326;-55
2023/06/04 04:29:32;;;;;;;2.20;2.00;;;20.70;34.20;20.90;101191.00;;;;5010861;28;20175;-55
2023/06/04 04:32:00;;;;;;;2.33;2.00;;;20.70;34.30;21.10;101195.00;;;;5011337;28;20200;-55
2023/06/04 04:34:26;;;;;;;2.37;1.97;;;20.70;34.50;21.10;101199.00;;;;5008912;28;20178;-54
2023/06/04 04:36:52;;;;;;;4.07;2.10;;;20.70;34.80;21.10;101191.00;;;;5010827;28;20576;-54
2023/06/04 04:39:21;;;;;;;4.77;2.20;;;20.70;34.60;21.10;101190.00;;;;5009048;28;20172;-54
2023/06/04 04:41:47;;;;;;;4.90;2.23;;;20.70;34.60;21.10;101196.00;;;;5011249;28;20176;-54
2023/06/04 04:44:13;;;;;;;2.80;2.30;;;20.70;34.70;21.10;101194.00;;;;5010712;28;20240;-55
2023/06/04 04:46:39;;;;;;;2.40;2.20;;;20.70;35.00;21.00;101203.00;;;;5018954;28;20179;-54
2023/06/04 04:49:05;;;;;;;2.10;1.90;;;20.70;35.00;20.90;101201.00;;;;5010153;28;20187;-56
2023/06/04 04:51:30;;;;;;;5.93;2.10;;;20.70;35.00;21.00;101197.00;;;;5011643;28;20195;-55
2023/06/04 04:53:56;;;;;;;3.40;2.30;;;20.70;35.00;21.00;101192.00;;;;5011866;28;20654;-55
2023/06/04 04:56:22;;;;;;;2.93;1.80;;;20.60;35.10;21.00;101197.00;;;;5010447;28;20201;-55
2023/06/04 04:58:48;;;;;;;3.33;2.10;;;20.70;35.20;21.00;101190.00;;;;5011425;28;20185;-55
2023/06/04 05:01:14;;;;;;;2.43;1.87;;;20.70;35.30;21.00;101194.00;;;;5010340;28;20192;-55
2023/06/04 05:03:40;;;;;;;2.60;1.97;;;20.60;35.30;21.00;101198.00;;;;5011852;28;20187;-55
2023/06/04 05:06:06;;;;;;;2.20;2.00;;;20.70;35.40;21.00;101212.00;;;;5011549;28;20174;-55
2023/06/04 05:08:31;;;;;;;2.30;2.10;;;20.70;35.40;21.00;101186.00;;;;5011427;28;20798;-54
2023/06/04 05:10:57;;;;;;;2.10;1.90;;;20.60;35.50;21.00;101188.00;;;;5011644;28;20681;-54
2023/06/04 05:13:23;;;;;;;2.10;1.90;;;20.60;35.50;20.90;101200.00;;;;5011725;28;20641;-55
2023/06/04 05:15:52;;;;;;;2.40;1.90;;;20.60;35.60;20.90;101199.00;;;;5011595;28;20178;-54
2023/06/04 05:18:21;;;;;;;2.20;2.00;;;20.60;35.70;20.90;101200.00;;;;5011334;28;20177;-54
2023/06/04 05:20:47;;;;;;;2.10;1.90;;;20.60;35.80;20.90;101205.00;;;;5011123;28;20209;-54
2023/06/04 05:23:13;;;;;;;2.13;1.80;;;20.60;35.80;20.90;101205.00;;;;5010261;28;20182;-54
2023/06/04 05:25:40;;;;;;;2.47;2.10;;;20.60;35.90;20.90;101212.00;;;;5011456;28;20174;-55
2023/06/04 05:28:06;;;;;;;1.80;1.70;;;20.50;35.90;20.80;101211.00;;;;5011132;28;20176;-54
2023/06/04 05:30:33;;;;;;;2.03;1.83;;;20.50;36.00;20.80;101206.00;;;;5010958;28;20197;-55
2023/06/04 05:32:59;;;;;;;2.37;1.90;;;20.50;36.20;20.80;101207.00;;;;5011402;28;20180;-55
2023/06/04 05:35:25;;;;;;;2.23;1.90;;;20.50;36.20;20.80;101209.00;;;;5011178;28;20179;-55
2023/06/04 05:37:53;;;;;;;1.80;1.70;;;20.40;36.20;20.80;101221.00;;;;5010906;28;20639;-55
2023/06/04 05:40:23;;;;;;;2.10;1.90;;;20.40;36.40;20.80;101200.00;;;;5010798;28;20222;-55
2023/06/04 05:42:49;;;;;;;3.50;2.00;;;20.40;36.60;20.80;101200.00;;;;5010019;28;20711;-54
2023/06/04 05:45:15;;;;;;;1.83;1.70;;;20.40;36.60;20.80;101202.00;;;;5010940;28;20183;-54
2023/06/04 05:47:40;;;;;;;2.03;1.80;;;20.40;36.60;20.80;101201.00;;;;5011854;28;20277;-54
2023/06/04 05:50:07;;;;;;;3.63;2.07;;;20.40;36.80;20.80;101206.00;;;;5011533;28;20277;-53
2023/06/04 05:52:36;;;;;;;2.00;1.80;;;20.40;37.10;20.80;101207.00;;;;5010955;28;20170;-54
2023/06/04 05:55:02;;;;;;;2.17;1.90;;;20.30;37.10;20.90;101217.00;;;;5010960;28;20174;-54
2023/06/04 05:57:28;;;;;;;2.60;1.83;;;20.30;37.00;20.90;101216.00;;;;5015895;28;20202;-55
2023/06/04 05:59:54;;;;;;;3.90;1.90;;;20.30;37.30;20.90;101215.00;;;;5019252;28;20230;-56
2023/06/04 06:02:20;;;;;;;2.10;1.90;;;20.30;37.40;20.90;101213.00;;;;5011343;28;20176;-55
2023/06/04 06:04:45;;;;;;;2.80;1.93;;;20.30;37.40;20.90;101220.00;;;;5010862;28;20190;-55
2023/06/04 06:07:11;;;;;;;2.27;1.90;;;20.30;37.50;20.90;101230.00;;;;5009779;28;20178;-55
2023/06/04 06:09:37;;;;;;;2.70;2.10;;;20.30;37.60;20.90;101233.00;;;;5010477;28;20196;-54
2023/06/04 06:12:03;;;;;;;3.13;1.93;;;20.30;37.70;20.90;101239.00;;;;5016309;28;20557;-55
2023/06/04 06:14:29;;;;;;;3.17;2.00;;;20.30;37.80;20.90;101230.00;;;;5016927;28;20168;-54
2023/06/04 06:16:54;;;;;;;2.77;2.00;;;20.30;37.80;20.90;101240.00;;;;5010932;28;20662;-54
2023/06/04 06:19:20;;;;;;;3.23;1.90;;;20.20;37.80;20.90;101236.00;;;;5011173;28;20180;-55
2023/06/04 06:21:46;;;;;;;2.30;1.80;;;20.20;37.80;20.90;101241.00;;;;5011036;28;20178;-54
2023/06/04 06:24:12;;;;;;;2.00;1.90;;;20.20;37.90;21.00;101238.00;;;;5006961;28;20215;-54
2023/06/04 06:26:38;;;;;;;2.20;2.00;;;20.30;38.00;21.00;101243.00;;;;5008962;28;20638;-56
2023/06/04 06:29:03;;;;;;;2.00;1.90;;;20.20;37.90;21.00;101234.00;;;;5009686;28;20178;-54
2023/06/04 06:31:29;;;;;;;2.00;1.80;;;20.30;38.00;21.00;101244.00;;;;5015368;28;20776;-55
2023/06/04 06:33:55;;;;;;;2.43;1.90;;;20.20;38.00;21.00;101233.00;;;;5008708;28;20658;-54
2023/06/04 06:36:21;;;;;;;2.30;2.00;;;20.30;38.10;21.00;101248.00;;;;5009193;28;20264;-55
2023/06/04 06:38:46;;;;;;;1.90;1.80;;;20.20;38.10;21.00;101249.00;;;;5009277;28;20202;-54
2023/06/04 06:41:12;;;;;;;2.13;1.80;;;20.30;38.10;21.00;101250.00;;;;5009061;28;20640;-54
2023/06/04 06:43:38;;;;;;;2.20;2.00;;;20.40;38.30;21.00;101257.00;;;;5013119;28;20237;-55
2023/06/04 06:46:04;;;;;;;4.70;2.10;;;20.40;38.40;21.00;101250.00;;;;5008810;28;20683;-54
2023/06/04 06:48:29;;;;;;;5.10;2.10;;;20.40;38.60;21.00;101255.00;;;;4999463;28;21131;-55
2023/06/04 06:50:55;;;;;;;4.17;2.20;;;20.40;39.00;21.10;101253.00;;;;5005155;28;20208;-54
2023/06/04 06:53:21;;;;;;;5.17;2.40;;;20.50;40.50;20.90;101259.00;;;;5007306;28;20180;-54
2023/06/04 06:55:47;;;;;;;3.20;2.50;;;20.50;40.50;21.10;101253.00;;;;5009355;28;20241;-55
2023/06/04 06:58:12;;;;;;;7.30;2.80;;;20.60;40.60;21.10;101263.00;;;;5009294;28;20178;-54
2023/06/04 07:00:38;;;;;;;5.67;2.73;;;20.60;41.30;21.10;101249.00;;;;5009342;28;20206;-54
2023/06/04 07:03:04;;;;;;;3.80;2.83;;;20.60;42.30;21.20;101257.00;;;;5009333;28;20208;-55
2023/06/04 07:05:30;;;;;;;4.13;2.63;;;20.60;42.70;21.20;101272.00;;;;5008952;28;20724;-54
2023/06/04 07:07:57;;;;;;;6.37;2.80;;;20.60;42.60;21.20;101267.00;;;;5009149;28;20225;-55
2023/06/04 07:10:24;;;;;;;4.03;2.90;;;20.60;43.20;21.20;101268.00;;;;5009058;28;20202;-54
2023/06/04 07:12:49;;;;;;;5.83;3.07;;;20.60;43.10;21.20;101261.00;;;;5009497;28;20237;-54
2023/06/04 07:15:15;;;;;;;4.20;2.80;;;20.60;42.80;21.20;101264.00;;;;5009112;28;20178;-54
2023/06/04 07:17:41;;;;;;;5.93;2.80;;;20.60;42.60;21.20;101268.00;;;;5009484;28;20234;-54
2023/06/04 07:20:09;;;;;;;4.47;3.07;;;20.60;42.90;21.20;101266.00;;;;5009090;28;20202;-55
2023/06/04 07:22:35;;;;;;;5.30;2.90;;;20.60;42.80;21.20;101272.00;;;;5009530;28;20191;-54
2023/06/04 07:25:00;;;;;;;4.33;2.80;;;20.60;43.00;21.20;101273.00;;;;5009311;28;20181;-54
2023/06/04 07:27:26;;;;;;;9.90;3.13;;;20.60;42.90;21.20;101261.00;;;;5009035;28;20192;-54
2023/06/04 07:29:52;;;;;;;5.93;3.07;;;20.60;43.00;21.20;101271.00;;;;5007877;28;20285;-54
2023/06/04 07:32:17;;;;;;;5.90;2.97;;;20.60;43.30;21.20;101265.00;;;;5008922;28;20257;-54
2023/06/04 07:34:43;;;;;;;4.30;2.60;;;20.60;43.10;21.20;101263.00;;;;5008959;28;20174;-54
2023/06/04 07:37:09;;;;;;;7.37;3.00;;;20.60;42.90;21.20;101263.00;;;;5008907;28;20596;-54
2023/06/04 07:39:35;;;;;;;5.87;2.80;;;20.60;43.40;21.20;101261.00;;;;5001053;28;20191;-54
2023/06/04 07:42:01;;;;;;;7.80;3.10;;;20.60;43.00;21.20;101263.00;;;;5008859;28;20653;-53
2023/06/04 07:44:27;;;;;;;5.97;3.10;;;20.60;42.90;21.20;101253.00;;;;5011137;28;20292;-55
2023/06/04 07:46:52;;;;;;;7.17;2.97;;;20.60;43.00;21.30;101267.00;;;;5013171;28;20176;-56
2023/06/04 07:49:18;;;;;;;8.23;3.10;;;20.60;42.90;21.20;101264.00;;;;5012785;28;20192;-55
2023/06/04 07:51:44;;;;;;;6.10;2.93;;;20.60;43.20;21.30;101255.00;;;;5012477;28;20264;-54
2023/06/04 07:54:10;;;;;;;4.53;2.80;;;20.70;43.00;21.30;101264.00;;;;5013635;28;20176;-57
2023/06/04 07:56:36;;;;;;;5.17;2.70;;;20.70;43.00;21.30;101262.00;;;;5014730;28;20169;-56
2023/06/04 07:59:01;;;;;;;5.27;2.53;;;20.70;42.80;21.30;101256.00;;;;5020223;28;20174;-56
2023/06/04 08:01:27;;;;;;;5.40;2.70;;;20.70;43.00;21.30;101265.00;;;;5013697;28;20212;-55
2023/06/04 08:03:53;;;;;;;4.60;2.90;;;20.70;42.90;21.30;101262.00;;;;5012886;28;20258;-56
2023/06/04 08:06:19;;;;;;;3.47;2.50;;;20.70;42.90;21.30;101250.00;;;;5012615;28;20240;-54
2023/06/04 08:08:45;;;;;;;4.67;2.70;;;20.70;42.80;21.30;101262.00;;;;5014096;28;20621;-54
2023/06/04 08:11:14;;;;;;;4.97;2.60;;;20.70;42.80;21.40;101178.00;;;;5014285;28;20202;-56
2023/06/04 08:13:40;;;;;;;4.97;2.70;;;20.70;42.80;21.40;101259.00;;;;5017226;28;20172;-56
2023/06/04 08:16:07;;;;;;;5.77;2.77;;;20.70;42.70;21.40;101258.00;;;;5015060;28;20363;-55
2023/06/04 08:18:33;;;;;;;4.00;2.57;;;20.70;42.80;21.40;101262.00;;;;5014419;28;20185;-56
2023/06/04 08:20:58;;;;;;;3.77;2.53;;;20.70;42.80;21.40;101252.00;;;;5013506;28;20195;-56
2023/06/04 08:23:24;;;;;;;4.37;2.50;;;20.70;42.80;21.40;101253.00;;;;5013174;28;20377;-56
2023/06/04 08:25:50;;;;;;;3.50;2.40;;;20.70;42.80;21.40;101256.00;;;;5013128;28;20175;-55
2023/06/04 08:28:16;;;;;;;2.83;2.30;;;20.70;42.90;21.40;101249.00;;;;5012691;28;20673;-57
2023/06/04 08:30:45;;;;;;;3.27;2.10;;;20.70;42.90;21.40;101250.00;;;;5012699;28;20685;-56
2023/06/04 08:33:11;;;;;;;4.67;2.23;;;20.70;43.00;21.40;101264.00;;;;5012977;28;20178;-55
2023/06/04 08:35:37;;;;;;;4.97;2.70;;;20.70;43.10;21.40;101247.00;;;;5012764;28;20254;-56
2023/06/04 08:38:03;;;;;;;4.90;2.53;;;20.70;43.10;21.40;101248.00;;;;5011531;28;20232;-56
2023/06/04 08:40:28;;;;;;;3.90;2.40;;;20.70;43.20;21.40;101250.00;;;;5012578;28;20211;-55
2023/06/04 08:42:58;;;;;;;3.60;2.60;;;20.70;43.40;21.50;101261.00;;;;5012503;28;20179;-56
2023/06/04 08:45:23;;;;;;;4.07;2.40;;;20.70;43.40;21.50;101257.00;;;;5010912;28;20312;-56
2023/06/04 08:47:50;;;;;;;3.63;2.50;;;20.70;43.40;21.50;101265.00;;;;5011360;28;20636;-54
2023/06/04 08:50:26;;;;;;;2.77;2.40;;;20.70;43.70;21.50;101262.00;;;;5010766;28;20211;-55
2023/06/04 08:52:54;;;;;;;3.10;2.40;;;20.70;43.60;21.40;101265.00;;;;5012912;28;20233;-55
2023/06/04 08:55:20;;;;;;;4.37;2.40;;;20.80;43.80;21.50;101265.00;;;;5011489;28;20180;-55
2023/06/04 08:57:45;;;;;;;4.03;2.43;;;20.80;43.80;21.50;101256.00;;;;4994584;28;20236;-56
2023/06/04 09:00:12;;;;;;;2.90;2.43;;;20.80;43.80;21.50;101263.00;;;;4978200;28;20402;-56
2023/06/04 09:02:38;;;;;;;3.23;2.50;;;20.80;43.90;21.50;101261.00;;;;5012278;28;20193;-56
2023/06/04 09:05:07;;;;;;;3.43;2.70;;;20.80;43.90;21.50;101266.00;;;;4994605;28;20182;-56
2023/06/04 09:07:35;;;;;;;2.53;2.20;;;20.80;44.20;21.50;101255.00;;;;5012317;28;20184;-54
2023/06/04 09:10:00;;;;;;;3.37;2.27;;;20.80;44.20;21.50;101263.00;;;;4979207;28;20203;-56
2023/06/04 09:12:26;;;;;;;3.00;2.50;;;20.80;44.20;21.50;101275.00;;;;5010876;28;20206;-57
2023/06/04 09:14:52;;;;;;;5.07;2.23;;;20.80;44.20;21.60;101271.00;;;;4994599;28;20180;-55
2023/06/04 09:17:24;;;;;;;2.67;2.23;;;20.80;44.20;21.60;101268.00;;;;5012263;28;20189;-56
2023/06/04 09:19:50;;;;;;;2.70;2.40;;;20.80;44.20;21.60;101260.00;;;;5012129;28;20208;-56
2023/06/04 09:22:16;;;;;;;3.00;2.23;;;20.90;44.30;21.60;101259.00;;;;5012223;28;20184;-56
2023/06/04 09:24:46;;;;;;;2.63;2.27;;;20.90;44.30;21.60;101264.00;;;;5010533;28;20187;-56
2023/06/04 09:27:21;;;;;;;4.60;2.30;;;20.90;44.30;21.60;101265.00;;;;5010399;28;20480;-56
2023/06/04 09:29:51;;;;;;;2.87;2.23;;;20.90;44.50;21.60;101274.00;;;;5011947;28;20217;-56
2023/06/04 09:32:27;;;;;;;3.00;2.23;;;20.80;44.60;21.60;101264.00;;;;4994105;28;20300;-56
2023/06/04 09:34:53;;;;;;;2.93;2.20;;;20.90;44.80;21.60;101259.00;;;;5011387;28;20175;-56
2023/06/04 09:37:19;;;;;;;3.30;2.33;;;20.90;44.80;21.60;101260.00;;;;4993865;28;20180;-56
2023/06/04 09:39:53;;;;;;;2.30;2.10;;;20.90;44.90;21.70;101266.00;;;;5011797;28;20192;-56
2023/06/04 09:42:19;;;;;;;4.33;2.50;;;20.90;45.00;21.70;101260.00;;;;5011865;28;20559;-56
2023/06/04 09:44:48;;;;;;;2.87;2.37;;;20.90;45.10;21.70;101256.00;;;;4993969;28;20178;-56
2023/06/04 09:47:13;;;;;;;2.27;2.07;;;20.90;45.00;21.70;101263.00;;;;5010114;28;20185;-55
2023/06/04 09:49:43;;;;;;;3.57;2.17;;;20.90;45.10;21.70;101269.00;;;;5010162;28;20214;-56
2023/06/04 09:52:10;;;;;;;3.00;2.10;;;20.90;45.10;21.70;101266.00;;;;5011471;28;20234;-56
2023/06/04 09:54:37;;;;;;;3.40;2.50;;;20.90;45.20;21.70;101270.00;;;;5011167;28;20191;-56
2023/06/04 09:57:16;;;;;;;2.80;2.20;;;20.90;45.20;21.70;101268.00;;;;5011911;28;20254;-56
2023/06/04 09:59:42;;;;;;;3.50;2.30;;;20.90;45.30;21.70;101258.00;;;;5004885;28;20187;-56
2023/06/04 10:02:08;;;;;;;2.73;2.23;;;21.00;45.40;21.70;101252.00;;;;4979491;28;20187;-55
2023/06/04 10:04:33;;;;;;;2.70;2.20;;;21.00;45.40;21.80;101272.00;;;;5010997;28;20667;-55
2023/06/04 10:06:59;;;;;;;2.33;2.10;;;21.00;45.50;21.80;101258.00;;;;5009991;28;20187;-56
2023/06/04 10:09:25;;;;;;;2.40;2.20;;;21.00;45.60;21.80;101257.00;;;;5010033;28;20185;-56
2023/06/04 10:11:56;;;;;;;2.87;2.03;;;21.00;45.60;21.80;101261.00;;;;4979449;28;20279;-57
2023/06/04 10:14:25;;;;;;;2.83;1.93;;;21.00;45.70;21.80;101250.00;;;;4983394;28;20627;-56
2023/06/04 10:16:51;;;;;;;2.23;2.00;;;21.00;45.80;21.80;101246.00;;;;5010816;28;20198;-56
2023/06/04 10:19:18;;;;;;;2.40;2.20;;;21.00;45.70;21.90;101250.00;;;;5009688;28;20865;-55
2023/06/04 10:21:43;;;;;;;2.20;2.00;;;21.00;45.80;21.90;101262.00;;;;4993743;28;20179;-56
2023/06/04 10:24:09;;;;;;;2.20;2.00;;;21.10;46.00;21.90;101260.00;;;;5011106;28;20212;-56
2023/06/04 10:26:35;;;;;;;2.20;2.00;;;21.10;45.90;21.90;101272.00;;;;5002586;28;20179;-56
2023/06/04 10:29:02;;;;;;;1.90;1.80;;;21.10;46.00;21.90;101252.00;;;;4993648;28;20202;-56
2023/06/04 10:31:28;;;;;;;2.23;1.90;;;21.10;46.00;22.00;101250.00;;;;5013069;28;20700;-56
2023/06/04 10:33:57;;;;;;;2.00;1.90;;;21.10;46.10;22.00;101246.00;;;;5013965;28;20179;-57
2023/06/04 10:36:24;;;;;;;2.37;2.10;;;21.20;46.40;22.00;101238.00;;;;5010689;28;20173;-56
2023/06/04 10:38:52;;;;;;;2.17;2.00;;;21.20;46.40;22.00;101246.00;;;;5010647;28;20186;-56
2023/06/04 10:41:19;;;;;;;2.20;2.00;;;21.20;46.40;22.00;101240.00;;;;5011424;28;20273;-57
2023/06/04 10:43:51;;;;;;;2.07;1.87;;;21.20;46.40;22.10;101247.00;;;;5009993;28;20253;-57
2023/06/04 10:46:18;;;;;;;2.37;1.90;;;21.20;46.50;22.10;101250.00;;;;5010797;28;20184;-55